sim
Sign-in with your pilot id or email,
or register
Callsign
Passwort

Schedule Details

Flight Number: RYR5041 (2)
Departure: Leeds Bradford Airport (EGNM) at 14:30
Arrival: Bratislava M. R. Stefanik Airport (LZIB) at 16:55
Route: Ryanair Passenger Schedule. Enter filed route here before submitting Pirep.

Weather Information
Getting current METAR information for EGNM 232120Z 17006KT 9999 SCT020 09/08 Q1006
Getting current METAR information for LZIB 232100Z 05003KT CAVOK 13/10 Q1017

Schedule Frequency

Route Map